sensor_id;sensor_type;location;lat;lon;timestamp;temperature;humidity
26336;DHT22;14047;50.936;4.654;2022-07-29T00:00:41;19.50;99.90
26336;DHT22;14047;50.936;4.654;2022-07-29T00:03:12;19.50;99.90
26336;DHT22;14047;50.936;4.654;2022-07-29T00:05:41;19.10;99.90
26336;DHT22;14047;50.936;4.654;2022-07-29T00:08:07;19.00;99.90
26336;DHT22;14047;50.936;4.654;2022-07-29T00:10:34;19.10;99.90
26336;DHT22;14047;50.936;4.654;2022-07-29T00:13:00;19.20;99.90
26336;DHT22;14047;50.936;4.654;2022-07-29T00:15:26;19.10;99.90
26336;DHT22;14047;50.936;4.654;2022-07-29T00:17:51;19.00;99.90
26336;DHT22;14047;50.936;4.654;2022-07-29T00:20:17;18.80;99.90
26336;DHT22;14047;50.936;4.654;2022-07-29T00:22:42;18.70;99.90
26336;DHT22;14047;50.936;4.654;2022-07-29T00:25:08;18.80;99.90
26336;DHT22;14047;50.936;4.654;2022-07-29T00:27:35;18.80;99.90
26336;DHT22;14047;50.936;4.654;2022-07-29T00:30:02;18.70;99.90
26336;DHT22;14047;50.936;4.654;2022-07-29T00:32:28;18.40;99.90
26336;DHT22;14047;50.936;4.654;2022-07-29T00:34:54;18.50;99.90
26336;DHT22;14047;50.936;4.654;2022-07-29T00:37:38;18.40;99.90
26336;DHT22;14047;50.936;4.654;2022-07-29T00:40:04;18.30;99.90
26336;DHT22;14047;50.936;4.654;2022-07-29T00:42:30;18.30;99.90
26336;DHT22;14047;50.936;4.654;2022-07-29T00:44:56;18.20;99.90
26336;DHT22;14047;50.936;4.654;2022-07-29T00:47:21;18.30;99.90
26336;DHT22;14047;50.936;4.654;2022-07-29T00:49:47;18.40;99.90
26336;DHT22;14047;50.936;4.654;2022-07-29T00:52:13;18.50;99.90
26336;DHT22;14047;50.936;4.654;2022-07-29T00:54:40;18.40;99.90
26336;DHT22;14047;50.936;4.654;2022-07-29T00:57:08;18.30;99.90
26336;DHT22;14047;50.936;4.654;2022-07-29T00:59:34;18.40;99.90
26336;DHT22;14047;50.936;4.654;2022-07-29T01:02:01;18.50;99.90
26336;DHT22;14047;50.936;4.654;2022-07-29T01:04:27;18.40;99.90
26336;DHT22;14047;50.936;4.654;2022-07-29T01:06:55;18.30;99.90
26336;DHT22;14047;50.936;4.654;2022-07-29T01:09:21;18.20;99.90
26336;DHT22;14047;50.936;4.654;2022-07-29T01:11:48;18.30;99.90
26336;DHT22;14047;50.936;4.654;2022-07-29T01:14:14;18.30;99.90
26336;DHT22;14047;50.936;4.654;2022-07-29T01:17:13;18.10;99.90
26336;DHT22;14047;50.936;4.654;2022-07-29T01:22:29;18.00;99.90
26336;DHT22;14047;50.936;4.654;2022-07-29T01:30:29;18.10;99.90
26336;DHT22;14047;50.936;4.654;2022-07-29T01:33:00;18.20;99.90
26336;DHT22;14047;50.936;4.654;2022-07-29T01:35:36;18.10;99.90
26336;DHT22;14047;50.936;4.654;2022-07-29T01:38:20;18.20;99.90
26336;DHT22;14047;50.936;4.654;2022-07-29T01:41:02;18.20;99.90
26336;DHT22;14047;50.936;4.654;2022-07-29T01:43:39;17.90;99.90
26336;DHT22;14047;50.936;4.654;2022-07-29T01:46:10;17.80;99.90
26336;DHT22;14047;50.936;4.654;2022-07-29T01:48:49;17.90;99.90
26336;DHT22;14047;50.936;4.654;2022-07-29T01:51:21;18.00;99.90
26336;DHT22;14047;50.936;4.654;2022-07-29T01:54:53;18.10;99.90
26336;DHT22;14047;50.936;4.654;2022-07-29T01:56:55;17.90;99.90
26336;DHT22;14047;50.936;4.654;2022-07-29T01:59:23;17.90;99.90
26336;DHT22;14047;50.936;4.654;2022-07-29T02:01:50;18.10;99.90
26336;DHT22;14047;50.936;4.654;2022-07-29T02:04:18;18.10;99.90
26336;DHT22;14047;50.936;4.654;2022-07-29T02:06:45;18.10;99.90
26336;DHT22;14047;50.936;4.654;2022-07-29T02:09:13;18.30;99.90
26336;DHT22;14047;50.936;4.654;2022-07-29T02:11:40;18.10;99.90
26336;DHT22;14047;50.936;4.654;2022-07-29T02:14:10;17.80;99.90
26336;DHT22;14047;50.936;4.654;2022-07-29T02:16:38;17.80;99.90
26336;DHT22;14047;50.936;4.654;2022-07-29T02:19:05;17.80;99.90
26336;DHT22;14047;50.936;4.654;2022-07-29T02:21:32;17.90;99.90
26336;DHT22;14047;50.936;4.654;2022-07-29T02:24:01;18.10;99.90
26336;DHT22;14047;50.936;4.654;2022-07-29T02:26:28;18.20;99.90
26336;DHT22;14047;50.936;4.654;2022-07-29T02:28:56;18.20;99.90
26336;DHT22;14047;50.936;4.654;2022-07-29T02:31:25;18.20;99.90
26336;DHT22;14047;50.936;4.654;2022-07-29T02:33:53;18.20;99.90
26336;DHT22;14047;50.936;4.654;2022-07-29T02:36:22;18.00;99.90
26336;DHT22;14047;50.936;4.654;2022-07-29T02:38:48;17.90;99.90
26336;DHT22;14047;50.936;4.654;2022-07-29T02:41:27;17.90;99.90
26336;DHT22;14047;50.936;4.654;2022-07-29T02:44:11;17.80;99.90
26336;DHT22;14047;50.936;4.654;2022-07-29T02:46:43;17.80;99.90
26336;DHT22;14047;50.936;4.654;2022-07-29T02:51:46;17.50;99.90
26336;DHT22;14047;50.936;4.654;2022-07-29T02:54:25;17.40;99.90
26336;DHT22;14047;50.936;4.654;2022-07-29T02:56:53;17.40;99.90
26336;DHT22;14047;50.936;4.654;2022-07-29T02:59:23;17.40;99.90
26336;DHT22;14047;50.936;4.654;2022-07-29T03:01:52;17.40;99.90
26336;DHT22;14047;50.936;4.654;2022-07-29T03:04:20;17.40;99.90
26336;DHT22;14047;50.936;4.654;2022-07-29T03:06:48;17.40;99.90
26336;DHT22;14047;50.936;4.654;2022-07-29T03:09:15;17.40;99.90
26336;DHT22;14047;50.936;4.654;2022-07-29T03:11:42;17.40;99.90
26336;DHT22;14047;50.936;4.654;2022-07-29T03:14:09;17.40;99.90
26336;DHT22;14047;50.936;4.654;2022-07-29T03:16:35;17.40;99.90
26336;DHT22;14047;50.936;4.654;2022-07-29T03:19:03;17.20;99.90
26336;DHT22;14047;50.936;4.654;2022-07-29T03:21:29;17.20;99.90
26336;DHT22;14047;50.936;4.654;2022-07-29T03:23:55;17.20;99.90
26336;DHT22;14047;50.936;4.654;2022-07-29T03:26:20;17.20;99.90
26336;DHT22;14047;50.936;4.654;2022-07-29T03:28:46;17.20;99.90
26336;DHT22;14047;50.936;4.654;2022-07-29T03:31:12;17.20;99.90
26336;DHT22;14047;50.936;4.654;2022-07-29T03:33:37;17.20;99.90
26336;DHT22;14047;50.936;4.654;2022-07-29T03:36:03;17.10;99.90
26336;DHT22;14047;50.936;4.654;2022-07-29T03:38:30;17.00;99.90
26336;DHT22;14047;50.936;4.654;2022-07-29T03:41:02;16.90;99.90
26336;DHT22;14047;50.936;4.654;2022-07-29T03:43:31;16.80;99.90
26336;DHT22;14047;50.936;4.654;2022-07-29T03:45:57;16.70;99.90
26336;DHT22;14047;50.936;4.654;2022-07-29T03:48:26;16.70;99.90
26336;DHT22;14047;50.936;4.654;2022-07-29T03:50:54;16.60;99.90
26336;DHT22;14047;50.936;4.654;2022-07-29T03:53:20;16.60;99.90
26336;DHT22;14047;50.936;4.654;2022-07-29T03:55:54;16.50;99.90
26336;DHT22;14047;50.936;4.654;2022-07-29T03:58:21;16.50;99.90
26336;DHT22;14047;50.936;4.654;2022-07-29T04:00:49;16.50;99.90
26336;DHT22;14047;50.936;4.654;2022-07-29T04:03:15;16.50;99.90
26336;DHT22;14047;50.936;4.654;2022-07-29T04:05:41;16.50;99.90
26336;DHT22;14047;50.936;4.654;2022-07-29T04:08:06;16.50;99.90
26336;DHT22;14047;50.936;4.654;2022-07-29T04:10:32;16.50;99.90
26336;DHT22;14047;50.936;4.654;2022-07-29T04:12:58;16.40;99.90
26336;DHT22;14047;50.936;4.654;2022-07-29T04:15:24;16.20;99.90
26336;DHT22;14047;50.936;4.654;2022-07-29T04:17:50;16.20;99.90
26336;DHT22;14047;50.936;4.654;2022-07-29T04:20:15;16.20;99.90
26336;DHT22;14047;50.936;4.654;2022-07-29T04:22:41;16.10;99.90
26336;DHT22;14047;50.936;4.654;2022-07-29T04:25:07;16.10;99.90
26336;DHT22;14047;50.936;4.654;2022-07-29T04:27:33;16.00;99.90
26336;DHT22;14047;50.936;4.654;2022-07-29T04:29:59;16.00;99.90
26336;DHT22;14047;50.936;4.654;2022-07-29T04:32:25;16.10;99.90
26336;DHT22;14047;50.936;4.654;2022-07-29T04:34:52;15.90;99.90
26336;DHT22;14047;50.936;4.654;2022-07-29T04:37:18;15.90;99.90
26336;DHT22;14047;50.936;4.654;2022-07-29T04:39:43;15.90;99.90
26336;DHT22;14047;50.936;4.654;2022-07-29T04:42:09;15.80;99.90
26336;DHT22;14047;50.936;4.654;2022-07-29T04:44:35;15.90;99.90
26336;DHT22;14047;50.936;4.654;2022-07-29T04:47:00;15.90;99.90
26336;DHT22;14047;50.936;4.654;2022-07-29T04:49:26;15.90;99.90
26336;DHT22;14047;50.936;4.654;2022-07-29T04:51:51;15.90;99.90
26336;DHT22;14047;50.936;4.654;2022-07-29T04:54:17;16.00;99.90
26336;DHT22;14047;50.936;4.654;2022-07-29T04:56:43;16.00;99.90
26336;DHT22;14047;50.936;4.654;2022-07-29T04:59:08;16.10;99.90
26336;DHT22;14047;50.936;4.654;2022-07-29T05:01:34;16.10;99.90
26336;DHT22;14047;50.936;4.654;2022-07-29T05:04:00;16.20;99.90
26336;DHT22;14047;50.936;4.654;2022-07-29T05:06:29;16.30;99.90
26336;DHT22;14047;50.936;4.654;2022-07-29T05:08:55;16.30;99.90
26336;DHT22;14047;50.936;4.654;2022-07-29T05:11:21;16.30;99.90
26336;DHT22;14047;50.936;4.654;2022-07-29T05:13:46;16.20;99.90
26336;DHT22;14047;50.936;4.654;2022-07-29T05:16:12;16.10;99.90
26336;DHT22;14047;50.936;4.654;2022-07-29T05:18:38;16.20;99.90
26336;DHT22;14047;50.936;4.654;2022-07-29T05:21:04;16.20;99.90
26336;DHT22;14047;50.936;4.654;2022-07-29T05:23:30;16.20;99.90
26336;DHT22;14047;50.936;4.654;2022-07-29T05:25:56;16.30;99.90
26336;DHT22;14047;50.936;4.654;2022-07-29T05:28:22;16.50;99.90
26336;DHT22;14047;50.936;4.654;2022-07-29T05:30:47;16.70;99.90
26336;DHT22;14047;50.936;4.654;2022-07-29T05:33:13;16.80;99.90
26336;DHT22;14047;50.936;4.654;2022-07-29T05:35:39;16.90;99.90
26336;DHT22;14047;50.936;4.654;2022-07-29T05:38:04;17.00;99.90
26336;DHT22;14047;50.936;4.654;2022-07-29T05:40:30;17.10;99.90
26336;DHT22;14047;50.936;4.654;2022-07-29T05:42:56;17.10;99.90
26336;DHT22;14047;50.936;4.654;2022-07-29T05:45:21;17.10;99.90
26336;DHT22;14047;50.936;4.654;2022-07-29T05:47:48;17.20;99.90
26336;DHT22;14047;50.936;4.654;2022-07-29T05:50:14;17.40;99.90
26336;DHT22;14047;50.936;4.654;2022-07-29T05:52:39;17.60;99.90
26336;DHT22;14047;50.936;4.654;2022-07-29T05:55:05;17.70;99.90
26336;DHT22;14047;50.936;4.654;2022-07-29T05:57:31;18.00;99.90
26336;DHT22;14047;50.936;4.654;2022-07-29T05:59:57;18.20;99.90
26336;DHT22;14047;50.936;4.654;2022-07-29T06:02:23;18.40;99.90
26336;DHT22;14047;50.936;4.654;2022-07-29T06:04:49;18.70;99.90
26336;DHT22;14047;50.936;4.654;2022-07-29T06:07:15;18.90;99.90
26336;DHT22;14047;50.936;4.654;2022-07-29T06:09:41;19.10;99.90
26336;DHT22;14047;50.936;4.654;2022-07-29T06:12:07;19.30;99.90
26336;DHT22;14047;50.936;4.654;2022-07-29T06:14:33;19.30;99.90
26336;DHT22;14047;50.936;4.654;2022-07-29T06:16:59;19.10;99.90
26336;DHT22;14047;50.936;4.654;2022-07-29T06:19:25;18.80;99.90
26336;DHT22;14047;50.936;4.654;2022-07-29T06:21:51;18.70;99.90
26336;DHT22;14047;50.936;4.654;2022-07-29T06:24:16;18.80;99.90
26336;DHT22;14047;50.936;4.654;2022-07-29T06:26:42;19.00;99.90
26336;DHT22;14047;50.936;4.654;2022-07-29T06:29:09;19.20;99.90
26336;DHT22;14047;50.936;4.654;2022-07-29T06:31:38;19.10;99.90
26336;DHT22;14047;50.936;4.654;2022-07-29T06:34:04;18.50;99.90
26336;DHT22;14047;50.936;4.654;2022-07-29T06:36:30;18.50;99.90
26336;DHT22;14047;50.936;4.654;2022-07-29T06:38:56;18.40;99.90
26336;DHT22;14047;50.936;4.654;2022-07-29T06:41:21;18.20;99.90
26336;DHT22;14047;50.936;4.654;2022-07-29T06:43:48;18.30;99.90
26336;DHT22;14047;50.936;4.654;2022-07-29T06:46:17;18.40;99.90
26336;DHT22;14047;50.936;4.654;2022-07-29T06:48:44;18.60;99.90
26336;DHT22;14047;50.936;4.654;2022-07-29T06:51:10;18.50;99.90
26336;DHT22;14047;50.936;4.654;2022-07-29T06:53:37;18.50;99.90
26336;DHT22;14047;50.936;4.654;2022-07-29T06:56:04;18.40;99.90
26336;DHT22;14047;50.936;4.654;2022-07-29T06:58:31;18.50;99.90
26336;DHT22;14047;50.936;4.654;2022-07-29T07:00:58;18.70;99.90
26336;DHT22;14047;50.936;4.654;2022-07-29T07:03:24;18.80;99.90
26336;DHT22;14047;50.936;4.654;2022-07-29T07:05:52;18.90;99.90
26336;DHT22;14047;50.936;4.654;2022-07-29T07:08:19;18.90;99.90
26336;DHT22;14047;50.936;4.654;2022-07-29T07:10:46;18.60;99.90
26336;DHT22;14047;50.936;4.654;2022-07-29T07:13:11;18.90;99.90
26336;DHT22;14047;50.936;4.654;2022-07-29T07:15:37;18.90;99.90
26336;DHT22;14047;50.936;4.654;2022-07-29T07:18:04;18.90;99.90
26336;DHT22;14047;50.936;4.654;2022-07-29T07:20:31;19.00;99.90
26336;DHT22;14047;50.936;4.654;2022-07-29T07:22:57;19.10;99.90
26336;DHT22;14047;50.936;4.654;2022-07-29T07:25:23;19.20;99.90
26336;DHT22;14047;50.936;4.654;2022-07-29T07:27:48;19.50;99.90
26336;DHT22;14047;50.936;4.654;2022-07-29T07:30:14;19.50;99.90
26336;DHT22;14047;50.936;4.654;2022-07-29T07:32:40;19.50;99.90
26336;DHT22;14047;50.936;4.654;2022-07-29T07:35:07;19.50;99.90
26336;DHT22;14047;50.936;4.654;2022-07-29T07:37:34;19.20;99.90
26336;DHT22;14047;50.936;4.654;2022-07-29T07:40:00;19.30;99.90
26336;DHT22;14047;50.936;4.654;2022-07-29T07:42:26;19.30;99.90
26336;DHT22;14047;50.936;4.654;2022-07-29T07:44:52;19.50;99.90
26336;DHT22;14047;50.936;4.654;2022-07-29T07:47:18;19.90;99.90
26336;DHT22;14047;50.936;4.654;2022-07-29T07:49:48;20.00;99.90
26336;DHT22;14047;50.936;4.654;2022-07-29T07:52:15;20.10;99.90
26336;DHT22;14047;50.936;4.654;2022-07-29T07:54:41;20.20;99.90
26336;DHT22;14047;50.936;4.654;2022-07-29T07:57:08;20.10;99.90
26336;DHT22;14047;50.936;4.654;2022-07-29T07:59:34;20.20;99.90
26336;DHT22;14047;50.936;4.654;2022-07-29T08:01:59;20.20;99.90
26336;DHT22;14047;50.936;4.654;2022-07-29T08:04:26;20.40;99.90
26336;DHT22;14047;50.936;4.654;2022-07-29T08:06:52;20.60;99.90
26336;DHT22;14047;50.936;4.654;2022-07-29T08:09:20;20.20;99.90
26336;DHT22;14047;50.936;4.654;2022-07-29T08:11:46;20.30;99.90
26336;DHT22;14047;50.936;4.654;2022-07-29T08:14:11;20.40;99.90
26336;DHT22;14047;50.936;4.654;2022-07-29T08:16:39;20.70;99.90
26336;DHT22;14047;50.936;4.654;2022-07-29T08:19:05;20.80;99.90
26336;DHT22;14047;50.936;4.654;2022-07-29T08:21:31;20.70;99.90
26336;DHT22;14047;50.936;4.654;2022-07-29T08:23:56;20.50;99.90
26336;DHT22;14047;50.936;4.654;2022-07-29T08:26:41;20.50;99.90
26336;DHT22;14047;50.936;4.654;2022-07-29T08:29:07;20.70;99.90
26336;DHT22;14047;50.936;4.654;2022-07-29T08:31:33;21.00;99.90
26336;DHT22;14047;50.936;4.654;2022-07-29T08:33:58;21.10;99.90
26336;DHT22;14047;50.936;4.654;2022-07-29T08:36:26;21.10;99.90
26336;DHT22;14047;50.936;4.654;2022-07-29T08:38:52;21.20;99.90
26336;DHT22;14047;50.936;4.654;2022-07-29T08:41:21;21.00;99.90
26336;DHT22;14047;50.936;4.654;2022-07-29T08:43:48;20.90;99.90
26336;DHT22;14047;50.936;4.654;2022-07-29T08:46:14;21.20;99.90
26336;DHT22;14047;50.936;4.654;2022-07-29T08:48:41;21.60;99.90
26336;DHT22;14047;50.936;4.654;2022-07-29T08:51:07;21.70;99.90
26336;DHT22;14047;50.936;4.654;2022-07-29T08:53:33;21.80;99.90
26336;DHT22;14047;50.936;4.654;2022-07-29T08:56:00;22.00;99.90
26336;DHT22;14047;50.936;4.654;2022-07-29T08:58:31;22.30;99.90
26336;DHT22;14047;50.936;4.654;2022-07-29T09:01:02;22.50;99.90
26336;DHT22;14047;50.936;4.654;2022-07-29T09:03:33;22.70;99.90
26336;DHT22;14047;50.936;4.654;2022-07-29T09:06:00;22.80;99.90
26336;DHT22;14047;50.936;4.654;2022-07-29T09:08:27;22.90;99.90
26336;DHT22;14047;50.936;4.654;2022-07-29T09:10:54;23.10;99.90
26336;DHT22;14047;50.936;4.654;2022-07-29T09:13:21;23.30;99.90
26336;DHT22;14047;50.936;4.654;2022-07-29T09:15:47;23.30;99.90
26336;DHT22;14047;50.936;4.654;2022-07-29T09:18:36;23.20;99.90
26336;DHT22;14047;50.936;4.654;2022-07-29T09:21:03;23.50;99.90
26336;DHT22;14047;50.936;4.654;2022-07-29T09:24:08;23.80;99.90
26336;DHT22;14047;50.936;4.654;2022-07-29T09:26:36;23.80;99.90
26336;DHT22;14047;50.936;4.654;2022-07-29T09:29:13;23.40;99.90
26336;DHT22;14047;50.936;4.654;2022-07-29T09:31:45;23.30;99.90
26336;DHT22;14047;50.936;4.654;2022-07-29T09:34:13;23.30;99.90
26336;DHT22;14047;50.936;4.654;2022-07-29T09:36:45;23.30;99.90
26336;DHT22;14047;50.936;4.654;2022-07-29T09:39:12;23.40;99.90
26336;DHT22;14047;50.936;4.654;2022-07-29T09:41:49;23.20;99.90
26336;DHT22;14047;50.936;4.654;2022-07-29T09:44:16;23.40;99.90
26336;DHT22;14047;50.936;4.654;2022-07-29T09:47:03;23.50;99.90
26336;DHT22;14047;50.936;4.654;2022-07-29T09:49:35;23.80;99.90
26336;DHT22;14047;50.936;4.654;2022-07-29T09:52:08;24.10;99.90
26336;DHT22;14047;50.936;4.654;2022-07-29T09:54:35;24.10;99.90
26336;DHT22;14047;50.936;4.654;2022-07-29T09:57:06;24.10;99.90
26336;DHT22;14047;50.936;4.654;2022-07-29T09:59:32;23.80;99.90
26336;DHT22;14047;50.936;4.654;2022-07-29T10:01:58;23.50;99.90
26336;DHT22;14047;50.936;4.654;2022-07-29T10:04:37;23.50;99.90
26336;DHT22;14047;50.936;4.654;2022-07-29T10:07:03;23.40;99.90
26336;DHT22;14047;50.936;4.654;2022-07-29T10:09:31;23.60;99.90
26336;DHT22;14047;50.936;4.654;2022-07-29T10:12:08;23.80;99.90
26336;DHT22;14047;50.936;4.654;2022-07-29T10:14:35;24.00;99.90
26336;DHT22;14047;50.936;4.654;2022-07-29T10:17:02;24.20;99.90
26336;DHT22;14047;50.936;4.654;2022-07-29T10:19:29;24.20;99.90
26336;DHT22;14047;50.936;4.654;2022-07-29T10:21:58;24.20;99.90
26336;DHT22;14047;50.936;4.654;2022-07-29T10:24:28;24.20;99.90
26336;DHT22;14047;50.936;4.654;2022-07-29T10:26:55;24.40;99.90
26336;DHT22;14047;50.936;4.654;2022-07-29T10:29:22;24.50;99.90
26336;DHT22;14047;50.936;4.654;2022-07-29T10:37:20;24.40;99.90
26336;DHT22;14047;50.936;4.654;2022-07-29T10:40:07;24.90;99.90
26336;DHT22;14047;50.936;4.654;2022-07-29T10:42:55;24.90;99.90
26336;DHT22;14047;50.936;4.654;2022-07-29T10:45:24;24.70;99.90
26336;DHT22;14047;50.936;4.654;2022-07-29T10:48:03;24.90;99.90
26336;DHT22;14047;50.936;4.654;2022-07-29T10:50:59;24.90;99.90
26336;DHT22;14047;50.936;4.654;2022-07-29T10:56:25;24.70;99.90
26336;DHT22;14047;50.936;4.654;2022-07-29T11:01:50;25.10;99.90
26336;DHT22;14047;50.936;4.654;2022-07-29T11:04:58;25.30;99.90
26336;DHT22;14047;50.936;4.654;2022-07-29T11:09:31;25.70;99.90
26336;DHT22;14047;50.936;4.654;2022-07-29T11:11:57;25.60;99.90
26336;DHT22;14047;50.936;4.654;2022-07-29T11:15:03;25.60;99.90
26336;DHT22;14047;50.936;4.654;2022-07-29T11:17:28;25.40;99.90
26336;DHT22;14047;50.936;4.654;2022-07-29T11:22:57;25.30;99.90
26336;DHT22;14047;50.936;4.654;2022-07-29T11:25:24;25.30;99.90
26336;DHT22;14047;50.936;4.654;2022-07-29T11:27:52;25.70;99.90
26336;DHT22;14047;50.936;4.654;2022-07-29T11:30:18;26.20;99.90
26336;DHT22;14047;50.936;4.654;2022-07-29T11:32:44;26.40;99.90
26336;DHT22;14047;50.936;4.654;2022-07-29T11:35:13;26.30;99.90
26336;DHT22;14047;50.936;4.654;2022-07-29T11:37:39;26.40;99.90
26336;DHT22;14047;50.936;4.654;2022-07-29T11:47:39;25.70;99.90
26336;DHT22;14047;50.936;4.654;2022-07-29T11:50:11;25.70;99.90
26336;DHT22;14047;50.936;4.654;2022-07-29T11:52:40;26.00;99.90
26336;DHT22;14047;50.936;4.654;2022-07-29T11:55:21;26.50;99.90
26336;DHT22;14047;50.936;4.654;2022-07-29T11:57:57;26.50;99.90
26336;DHT22;14047;50.936;4.654;2022-07-29T12:00:36;26.40;99.90
26336;DHT22;14047;50.936;4.654;2022-07-29T12:03:08;26.60;99.90
26336;DHT22;14047;50.936;4.654;2022-07-29T12:05:44;27.10;99.90
26336;DHT22;14047;50.936;4.654;2022-07-29T12:08:21;26.60;99.90
26336;DHT22;14047;50.936;4.654;2022-07-29T12:10:48;26.30;99.90
26336;DHT22;14047;50.936;4.654;2022-07-29T12:13:17;26.30;99.90
26336;DHT22;14047;50.936;4.654;2022-07-29T12:15:55;26.40;99.90
26336;DHT22;14047;50.936;4.654;2022-07-29T12:18:22;27.10;99.90
26336;DHT22;14047;50.936;4.654;2022-07-29T12:20:48;27.90;99.90
26336;DHT22;14047;50.936;4.654;2022-07-29T12:23:14;28.40;99.90
26336;DHT22;14047;50.936;4.654;2022-07-29T12:25:43;28.40;99.90
26336;DHT22;14047;50.936;4.654;2022-07-29T12:28:14;28.50;99.90
26336;DHT22;14047;50.936;4.654;2022-07-29T12:30:46;28.30;99.90
26336;DHT22;14047;50.936;4.654;2022-07-29T12:33:24;28.40;99.90
26336;DHT22;14047;50.936;4.654;2022-07-29T12:35:53;28.60;99.90
26336;DHT22;14047;50.936;4.654;2022-07-29T12:38:19;28.10;99.90
26336;DHT22;14047;50.936;4.654;2022-07-29T12:40:46;27.80;99.90
26336;DHT22;14047;50.936;4.654;2022-07-29T12:43:18;27.70;99.90
26336;DHT22;14047;50.936;4.654;2022-07-29T12:45:49;27.80;99.90
26336;DHT22;14047;50.936;4.654;2022-07-29T12:48:16;28.20;99.90
26336;DHT22;14047;50.936;4.654;2022-07-29T12:50:53;28.30;99.90
26336;DHT22;14047;50.936;4.654;2022-07-29T12:53:19;28.70;99.90
26336;DHT22;14047;50.936;4.654;2022-07-29T12:55:47;28.80;99.90
26336;DHT22;14047;50.936;4.654;2022-07-29T12:58:39;29.10;99.90
26336;DHT22;14047;50.936;4.654;2022-07-29T13:01:14;28.80;99.90
26336;DHT22;14047;50.936;4.654;2022-07-29T13:03:54;28.00;99.90
26336;DHT22;14047;50.936;4.654;2022-07-29T13:11:35;27.90;99.90
26336;DHT22;14047;50.936;4.654;2022-07-29T13:14:01;27.90;99.90
26336;DHT22;14047;50.936;4.654;2022-07-29T13:16:27;27.70;99.90
26336;DHT22;14047;50.936;4.654;2022-07-29T13:19:09;28.00;99.90
26336;DHT22;14047;50.936;4.654;2022-07-29T13:21:35;28.00;99.90
26336;DHT22;14047;50.936;4.654;2022-07-29T13:24:01;27.80;99.90
26336;DHT22;14047;50.936;4.654;2022-07-29T13:26:27;27.70;99.90
26336;DHT22;14047;50.936;4.654;2022-07-29T13:28:54;27.90;99.90
26336;DHT22;14047;50.936;4.654;2022-07-29T13:31:20;28.00;99.90
26336;DHT22;14047;50.936;4.654;2022-07-29T13:33:45;28.00;99.90
26336;DHT22;14047;50.936;4.654;2022-07-29T13:36:11;28.10;99.90
26336;DHT22;14047;50.936;4.654;2022-07-29T13:38:37;27.90;99.90
26336;DHT22;14047;50.936;4.654;2022-07-29T13:41:02;28.10;99.90
26336;DHT22;14047;50.936;4.654;2022-07-29T13:43:28;28.30;99.90
26336;DHT22;14047;50.936;4.654;2022-07-29T13:45:54;28.50;99.90
26336;DHT22;14047;50.936;4.654;2022-07-29T13:48:19;28.20;99.90
26336;DHT22;14047;50.936;4.654;2022-07-29T13:50:45;28.50;99.90
26336;DHT22;14047;50.936;4.654;2022-07-29T13:53:12;28.30;99.90
26336;DHT22;14047;50.936;4.654;2022-07-29T13:55:37;27.90;99.90
26336;DHT22;14047;50.936;4.654;2022-07-29T13:58:03;27.70;99.90
26336;DHT22;14047;50.936;4.654;2022-07-29T14:00:29;27.70;99.90
26336;DHT22;14047;50.936;4.654;2022-07-29T14:02:54;28.10;99.90
26336;DHT22;14047;50.936;4.654;2022-07-29T14:05:20;28.20;99.80
26336;DHT22;14047;50.936;4.654;2022-07-29T14:07:45;28.20;99.40
26336;DHT22;14047;50.936;4.654;2022-07-29T14:10:11;28.40;99.20
26336;DHT22;14047;50.936;4.654;2022-07-29T14:12:37;28.10;99.60
26336;DHT22;14047;50.936;4.654;2022-07-29T14:15:04;28.20;99.70
26336;DHT22;14047;50.936;4.654;2022-07-29T14:17:29;28.20;99.30
26336;DHT22;14047;50.936;4.654;2022-07-29T14:19:55;28.10;99.20
26336;DHT22;14047;50.936;4.654;2022-07-29T14:22:21;28.10;98.90
26336;DHT22;14047;50.936;4.654;2022-07-29T14:24:46;28.20;98.50
26336;DHT22;14047;50.936;4.654;2022-07-29T14:27:12;28.30;98.80
26336;DHT22;14047;50.936;4.654;2022-07-29T14:29:38;28.20;99.50
26336;DHT22;14047;50.936;4.654;2022-07-29T14:32:08;28.50;99.50
26336;DHT22;14047;50.936;4.654;2022-07-29T14:34:37;28.60;98.10
26336;DHT22;14047;50.936;4.654;2022-07-29T14:37:04;28.60;97.70
26336;DHT22;14047;50.936;4.654;2022-07-29T14:39:34;28.20;97.70
26336;DHT22;14047;50.936;4.654;2022-07-29T14:42:00;27.90;98.50
26336;DHT22;14047;50.936;4.654;2022-07-29T14:44:26;27.80;99.40
26336;DHT22;14047;50.936;4.654;2022-07-29T14:46:59;27.90;99.30
26336;DHT22;14047;50.936;4.654;2022-07-29T14:49:26;28.00;98.50
26336;DHT22;14047;50.936;4.654;2022-07-29T14:51:52;28.10;98.30
26336;DHT22;14047;50.936;4.654;2022-07-29T14:54:18;28.40;98.40
26336;DHT22;14047;50.936;4.654;2022-07-29T14:56:43;29.40;97.00
26336;DHT22;14047;50.936;4.654;2022-07-29T14:59:09;30.20;95.20
26336;DHT22;14047;50.936;4.654;2022-07-29T15:01:35;30.40;94.90
26336;DHT22;14047;50.936;4.654;2022-07-29T15:04:00;30.70;95.10
26336;DHT22;14047;50.936;4.654;2022-07-29T15:06:26;31.80;93.50
26336;DHT22;14047;50.936;4.654;2022-07-29T15:08:52;32.00;92.30
26336;DHT22;14047;50.936;4.654;2022-07-29T15:11:18;31.30;92.70
26336;DHT22;14047;50.936;4.654;2022-07-29T15:13:43;31.10;92.60
26336;DHT22;14047;50.936;4.654;2022-07-29T15:16:09;30.90;92.10
26336;DHT22;14047;50.936;4.654;2022-07-29T15:18:35;30.70;92.10
26336;DHT22;14047;50.936;4.654;2022-07-29T15:21:03;30.30;92.70
26336;DHT22;14047;50.936;4.654;2022-07-29T15:23:28;30.80;92.20
26336;DHT22;14047;50.936;4.654;2022-07-29T15:25:54;30.70;92.10
26336;DHT22;14047;50.936;4.654;2022-07-29T15:28:20;31.00;91.50
26336;DHT22;14047;50.936;4.654;2022-07-29T15:30:45;30.80;91.70
26336;DHT22;14047;50.936;4.654;2022-07-29T15:33:11;29.30;94.00
26336;DHT22;14047;50.936;4.654;2022-07-29T15:35:37;28.20;94.90
26336;DHT22;14047;50.936;4.654;2022-07-29T15:38:03;28.20;94.90
26336;DHT22;14047;50.936;4.654;2022-07-29T15:40:32;28.30;95.20
26336;DHT22;14047;50.936;4.654;2022-07-29T15:42:58;28.70;93.80
26336;DHT22;14047;50.936;4.654;2022-07-29T15:45:35;29.40;93.80
26336;DHT22;14047;50.936;4.654;2022-07-29T15:48:01;30.90;92.60
26336;DHT22;14047;50.936;4.654;2022-07-29T15:50:27;32.40;91.50
26336;DHT22;14047;50.936;4.654;2022-07-29T15:52:52;33.60;90.10
26336;DHT22;14047;50.936;4.654;2022-07-29T15:55:18;34.50;85.40
26336;DHT22;14047;50.936;4.654;2022-07-29T15:57:44;33.60;86.40
26336;DHT22;14047;50.936;4.654;2022-07-29T16:00:10;32.80;87.60
26336;DHT22;14047;50.936;4.654;2022-07-29T16:02:35;31.20;88.40
26336;DHT22;14047;50.936;4.654;2022-07-29T16:05:02;31.60;88.40
26336;DHT22;14047;50.936;4.654;2022-07-29T16:07:28;32.80;86.70
26336;DHT22;14047;50.936;4.654;2022-07-29T16:09:53;33.30;85.50
26336;DHT22;14047;50.936;4.654;2022-07-29T16:12:19;33.70;83.40
26336;DHT22;14047;50.936;4.654;2022-07-29T16:14:45;33.70;82.10
26336;DHT22;14047;50.936;4.654;2022-07-29T16:17:13;32.90;83.70